createdAt,value
2018-09-05T00:00:27.258Z,1006.28
2018-09-05T00:01:27.248Z,1006.27
2018-09-05T00:02:27.160Z,1006.25
2018-09-05T00:03:27.114Z,1006.24
2018-09-05T00:04:27.069Z,1006.28
2018-09-05T00:05:27.019Z,1006.25
2018-09-05T00:06:26.997Z,1006.26
2018-09-05T00:07:26.932Z,1006.23
2018-09-05T00:08:26.892Z,1006.27
2018-09-05T00:09:26.836Z,1006.23
2018-09-05T00:10:26.789Z,1006.19
2018-09-05T00:11:26.767Z,1006.22
2018-09-05T00:12:26.697Z,1006.19
2018-09-05T00:13:26.654Z,1006.15
2018-09-05T00:14:26.604Z,1006.20
2018-09-05T00:15:26.555Z,1006.18
2018-09-05T00:16:26.535Z,1006.20
2018-09-05T00:17:26.465Z,1006.20
2018-09-05T00:18:26.418Z,1006.19
2018-09-05T00:19:26.378Z,1006.16
2018-09-05T00:20:26.322Z,1006.15
2018-09-05T00:21:26.302Z,1006.16
2018-09-05T00:22:26.235Z,1006.13
2018-09-05T00:23:26.184Z,1006.09
2018-09-05T00:24:26.138Z,1006.09
2018-09-05T00:25:26.093Z,1006.07
2018-09-05T00:26:26.091Z,1006.09
2018-09-05T00:27:25.999Z,1006.09
2018-09-05T00:28:25.951Z,1006.08
2018-09-05T00:29:25.910Z,1006.07
2018-09-05T00:30:25.864Z,1006.12
2018-09-05T00:31:25.815Z,1006.09
2018-09-05T00:32:25.790Z,1006.11
2018-09-05T00:33:25.728Z,1006.09
2018-09-05T00:34:25.677Z,1006.09
2018-09-05T00:35:25.632Z,1006.06
2018-09-05T00:36:25.584Z,1006.07
2018-09-05T00:37:25.564Z,1006.06
2018-09-05T00:38:25.538Z,1006.08
2018-09-05T00:39:25.450Z,1006.09
2018-09-05T00:40:25.399Z,1006.06
2018-09-05T00:41:25.349Z,1006.08
2018-09-05T00:42:25.325Z,1006.08
2018-09-05T00:43:25.261Z,1006.07
2018-09-05T00:44:25.222Z,1006.06
2018-09-05T00:45:25.162Z,1006.06
2018-09-05T00:46:25.110Z,1006.07
2018-09-05T00:47:25.108Z,1006.07
2018-09-05T00:48:25.020Z,1006.11
2018-09-05T00:49:24.971Z,1006.05
2018-09-05T00:50:24.925Z,1006.07
2018-09-05T00:51:24.892Z,1006.07
2018-09-05T00:52:24.859Z,1006.05
2018-09-05T00:53:24.790Z,1006.05
2018-09-05T00:54:24.753Z,1006.11
2018-09-05T00:55:24.693Z,1006.09
2018-09-05T00:56:24.646Z,1006.11
2018-09-05T00:57:24.623Z,1006.12
2018-09-05T00:58:24.551Z,1006.13
2018-09-05T00:59:24.514Z,1006.15
2018-09-05T01:00:24.463Z,1006.16
2018-09-05T01:01:24.417Z,1006.12
2018-09-05T01:02:24.400Z,1006.13
2018-09-05T01:03:24.328Z,1006.15
2018-09-05T01:04:24.276Z,1006.11
2018-09-05T01:05:24.230Z,1006.10
2018-09-05T01:06:24.181Z,1006.16
2018-09-05T01:07:24.158Z,1006.16
2018-09-05T01:08:24.107Z,1006.19
2018-09-05T01:09:24.040Z,1006.16
2018-09-05T01:10:23.993Z,1006.18
2018-09-05T01:11:23.951Z,1006.21
2018-09-05T01:12:23.927Z,1006.18
2018-09-05T01:13:23.853Z,1006.13
2018-09-05T01:14:23.812Z,1006.15
2018-09-05T01:15:23.765Z,1006.11
2018-09-05T01:16:23.712Z,1006.12
2018-09-05T01:17:23.693Z,1006.10
2018-09-05T01:18:23.622Z,1006.12
2018-09-05T01:19:23.578Z,1006.10
2018-09-05T01:20:23.533Z,1006.09
2018-09-05T01:21:23.480Z,1006.11
2018-09-05T01:22:23.459Z,1006.06
2018-09-05T01:23:23.384Z,1006.11
2018-09-05T01:24:23.383Z,1006.07
2018-09-05T01:25:23.294Z,1006.06
2018-09-05T01:26:23.246Z,1006.09
2018-09-05T01:27:23.232Z,1006.09
2018-09-05T01:28:23.155Z,1006.06
2018-09-05T01:29:23.120Z,1006.06
2018-09-05T01:30:23.062Z,1006.04
2018-09-05T01:31:23.015Z,1006.05
2018-09-05T01:32:23.004Z,1006.03
2018-09-05T01:33:22.922Z,1006.04
2018-09-05T01:34:22.878Z,1006.04
2018-09-05T01:35:22.829Z,1006.04
2018-09-05T01:36:22.784Z,1006.02
2018-09-05T01:37:22.760Z,1006.04
2018-09-05T01:38:22.689Z,1006.03
2018-09-05T01:39:22.643Z,1006.02
2018-09-05T01:40:22.595Z,1006.03
2018-09-05T01:41:22.554Z,1006.00
2018-09-05T01:42:22.538Z,1006.02
2018-09-05T01:43:22.461Z,1006.03
2018-09-05T01:44:22.431Z,1005.97
2018-09-05T01:45:22.361Z,1006.02
2018-09-05T01:46:22.329Z,1006.05
2018-09-05T01:47:22.294Z,1005.99
2018-09-05T01:48:22.224Z,1005.98
2018-09-05T01:49:22.181Z,1005.96
2018-09-05T01:50:22.128Z,1005.94
2018-09-05T01:51:22.085Z,1005.99
2018-09-05T01:52:22.067Z,1005.94
2018-09-05T01:53:22.019Z,1005.98
2018-09-05T01:54:21.950Z,1005.98
2018-09-05T01:55:21.894Z,1005.98
2018-09-05T01:56:21.855Z,1005.99
2018-09-05T01:57:21.799Z,1005.97
2018-09-05T01:58:21.778Z,1005.97
2018-09-05T01:59:21.710Z,1005.97
2018-09-05T02:00:21.661Z,1005.99
2018-09-05T02:01:21.618Z,1005.99
2018-09-05T02:02:21.570Z,1005.98
2018-09-05T02:03:21.550Z,1005.96
2018-09-05T02:04:21.482Z,1005.95
2018-09-05T02:05:21.427Z,1005.98
2018-09-05T02:06:21.381Z,1005.97
2018-09-05T02:07:21.337Z,1005.96
2018-09-05T02:08:21.330Z,1006.00
2018-09-05T02:09:21.239Z,1005.99
2018-09-05T02:10:21.211Z,1005.99
2018-09-05T02:11:21.154Z,1006.00
2018-09-05T02:12:21.104Z,1005.98
2018-09-05T02:13:21.080Z,1005.97
2018-09-05T02:14:21.012Z,1006.05
2018-09-05T02:15:20.965Z,1006.02
2018-09-05T02:16:20.912Z,1006.03
2018-09-05T02:17:20.867Z,1006.00
2018-09-05T02:18:20.842Z,1006.03
2018-09-05T02:19:20.771Z,1006.03
2018-09-05T02:20:20.729Z,1006.06
2018-09-05T02:21:20.681Z,1006.07
2018-09-05T02:22:20.630Z,1006.08
2018-09-05T02:23:20.612Z,1006.06
2018-09-05T02:24:20.541Z,1006.07
2018-09-05T02:25:20.489Z,1006.08
2018-09-05T02:26:20.446Z,1006.07
2018-09-05T02:27:20.397Z,1006.04
2018-09-05T02:28:20.376Z,1006.04
2018-09-05T02:29:20.308Z,1006.03
2018-09-05T02:30:20.260Z,1006.03
2018-09-05T02:31:20.221Z,1006.03
2018-09-05T02:32:20.170Z,1006.03
2018-09-05T02:33:20.148Z,1005.98
2018-09-05T02:34:20.079Z,1005.99
2018-09-05T02:35:20.022Z,1005.98
2018-09-05T02:36:19.987Z,1005.96
2018-09-05T02:37:19.930Z,1005.98
2018-09-05T02:38:19.909Z,1005.99
2018-09-05T02:39:19.837Z,1005.98
2018-09-05T02:40:19.818Z,1005.95
2018-09-05T02:41:19.749Z,1005.94
2018-09-05T02:42:19.697Z,1005.95
2018-09-05T02:43:19.675Z,1005.93
2018-09-05T02:44:19.607Z,1005.97
2018-09-05T02:45:19.575Z,1005.95
2018-09-05T02:46:19.509Z,1005.96
2018-09-05T02:47:19.463Z,1005.92
2018-09-05T02:48:19.442Z,1005.98
2018-09-05T02:49:19.370Z,1005.92
2018-09-05T02:50:19.323Z,1005.98
2018-09-05T02:51:19.276Z,1005.95
2018-09-05T02:52:19.233Z,1005.96
2018-09-05T02:53:19.207Z,1005.98
2018-09-05T02:54:19.133Z,1005.93
2018-09-05T02:55:19.091Z,1005.94
2018-09-05T02:56:19.041Z,1005.94
2018-09-05T02:57:18.996Z,1005.95
2018-09-05T02:58:18.971Z,1005.97
2018-09-05T02:59:18.901Z,1005.99
2018-09-05T03:00:18.853Z,1005.96
2018-09-05T03:01:18.817Z,1005.98
2018-09-05T03:02:18.761Z,1005.97
2018-09-05T03:03:18.763Z,1005.97
2018-09-05T03:04:18.678Z,1005.98
2018-09-05T03:05:18.628Z,1005.95
2018-09-05T03:06:18.571Z,1005.99
2018-09-05T03:07:18.541Z,1005.98
2018-09-05T03:08:18.550Z,1005.95
2018-09-05T03:09:18.479Z,1005.99
2018-09-05T03:10:18.404Z,1005.98
2018-09-05T03:11:18.352Z,1005.98
2018-09-05T03:12:18.292Z,1005.94
2018-09-05T03:13:18.270Z,1005.94
2018-09-05T03:14:18.210Z,1005.93
2018-09-05T03:15:18.163Z,1005.91
2018-09-05T03:16:18.102Z,1005.93
2018-09-05T03:17:18.055Z,1005.94
2018-09-05T03:18:18.033Z,1005.92
2018-09-05T03:19:17.961Z,1005.93
2018-09-05T03:20:17.916Z,1005.94
2018-09-05T03:21:17.870Z,1005.99
2018-09-05T03:22:17.843Z,1005.96
2018-09-05T03:23:17.814Z,1005.90
2018-09-05T03:24:17.749Z,1005.91
2018-09-05T03:25:17.677Z,1005.93
2018-09-05T03:26:17.634Z,1005.94
2018-09-05T03:27:17.586Z,1005.95
2018-09-05T03:28:17.537Z,1005.94
2018-09-05T03:29:17.522Z,1005.99
2018-09-05T03:30:17.448Z,1006.00
2018-09-05T03:31:17.399Z,1005.96
2018-09-05T03:32:17.384Z,1006.00
2018-09-05T03:33:17.303Z,1005.98
2018-09-05T03:34:17.286Z,1005.97
2018-09-05T03:35:17.219Z,1006.03
2018-09-05T03:36:17.164Z,1005.98
2018-09-05T03:37:17.117Z,1006.01
2018-09-05T03:38:17.069Z,1005.95
2018-09-05T03:39:17.046Z,1005.94
2018-09-05T03:40:16.975Z,1005.94
2018-09-05T03:41:16.925Z,1005.92
2018-09-05T03:42:16.878Z,1005.96
2018-09-05T03:43:16.833Z,1005.97
2018-09-05T03:44:16.810Z,1005.92
2018-09-05T03:45:16.737Z,1005.96
2018-09-05T03:46:16.695Z,1005.93
2018-09-05T03:47:16.644Z,1005.96
2018-09-05T03:48:16.598Z,1005.95
2018-09-05T03:49:16.571Z,1005.93
2018-09-05T03:50:16.503Z,1005.95
2018-09-05T03:51:16.461Z,1006.01
2018-09-05T03:52:16.408Z,1005.95
2018-09-05T03:53:16.363Z,1005.97
2018-09-05T03:54:16.338Z,1006.00
2018-09-05T03:55:16.268Z,1005.98
2018-09-05T03:56:16.232Z,1005.98
2018-09-05T03:57:16.173Z,1006.00
2018-09-05T03:58:16.132Z,1005.97
2018-09-05T03:59:16.104Z,1005.99
2018-09-05T04:00:16.036Z,1006.02
2018-09-05T04:01:15.998Z,1006.03
2018-09-05T04:02:15.942Z,1006.01
2018-09-05T04:03:15.898Z,1006.02
2018-09-05T04:04:15.869Z,1006.00
2018-09-05T04:05:15.805Z,1005.99
2018-09-05T04:06:15.753Z,1006.02
2018-09-05T04:07:15.710Z,1005.99
2018-09-05T04:08:15.659Z,1006.03
2018-09-05T04:09:15.633Z,1006.02
2018-09-05T04:10:15.566Z,1006.02
2018-09-05T04:11:15.516Z,1005.99
2018-09-05T04:12:15.530Z,1006.00
2018-09-05T04:13:15.424Z,1006.02
2018-09-05T04:14:15.399Z,1006.06
2018-09-05T04:15:15.335Z,1006.04
2018-09-05T04:16:15.279Z,1006.03
2018-09-05T04:17:15.231Z,1006.05
2018-09-05T04:18:15.183Z,1006.03
2018-09-05T04:19:15.160Z,1006.07
2018-09-05T04:20:15.099Z,1006.06
2018-09-05T04:21:15.046Z,1006.05
2018-09-05T04:22:15.001Z,1006.06
2018-09-05T04:23:14.951Z,1006.05
2018-09-05T04:24:14.928Z,1006.09
2018-09-05T04:25:14.861Z,1006.08
2018-09-05T04:26:14.833Z,1006.06
2018-09-05T04:27:14.763Z,1006.07
2018-09-05T04:28:14.711Z,1006.04
2018-09-05T04:29:14.718Z,1006.06
2018-09-05T04:30:14.623Z,1006.11
2018-09-05T04:31:14.574Z,1006.11
2018-09-05T04:32:14.533Z,1006.09
2018-09-05T04:33:14.479Z,1006.09
2018-09-05T04:34:14.452Z,1006.10
2018-09-05T04:35:14.396Z,1006.09
2018-09-05T04:36:14.337Z,1006.07
2018-09-05T04:37:14.296Z,1006.08
2018-09-05T04:38:14.243Z,1006.08
2018-09-05T04:39:14.240Z,1006.12
2018-09-05T04:40:14.148Z,1006.08
2018-09-05T04:41:14.101Z,1006.10
2018-09-05T04:42:14.053Z,1006.12
2018-09-05T04:43:14.006Z,1006.10
2018-09-05T04:44:13.959Z,1006.10
2018-09-05T04:45:14.024Z,1006.15
2018-09-05T04:46:13.865Z,1006.10
2018-09-05T04:47:13.820Z,1006.10
2018-09-05T04:48:13.766Z,1006.11
2018-09-05T04:49:13.731Z,1006.09
2018-09-05T04:50:13.698Z,1006.07
2018-09-05T04:51:13.644Z,1006.05
2018-09-05T04:52:13.581Z,1006.09
2018-09-05T04:53:13.536Z,1006.08
2018-09-05T04:54:13.486Z,1006.07
2018-09-05T04:55:13.465Z,1006.07
2018-09-05T04:56:13.396Z,1006.06
2018-09-05T04:57:13.343Z,1006.07
2018-09-05T04:58:13.296Z,1006.07
2018-09-05T04:59:13.253Z,1006.10
2018-09-05T05:00:13.230Z,1006.13
2018-09-05T05:01:13.156Z,1006.12
2018-09-05T05:02:13.107Z,1006.13
2018-09-05T05:03:13.057Z,1006.13
2018-09-05T05:04:13.016Z,1006.12
2018-09-05T05:05:12.988Z,1006.11
2018-09-05T05:06:12.921Z,1006.11
2018-09-05T05:07:12.875Z,1006.13
2018-09-05T05:08:12.826Z,1006.11
2018-09-05T05:09:12.776Z,1006.13
2018-09-05T05:10:12.753Z,1006.13
2018-09-05T05:11:12.686Z,1006.14
2018-09-05T05:12:12.634Z,1006.17
2018-09-05T05:13:12.584Z,1006.15
2018-09-05T05:14:12.543Z,1006.19
2018-09-05T05:15:12.519Z,1006.17
2018-09-05T05:16:12.457Z,1006.16
2018-09-05T05:17:12.396Z,1006.21
2018-09-05T05:18:12.365Z,1006.18
2018-09-05T05:19:12.303Z,1006.18
2018-09-05T05:20:12.279Z,1006.16
2018-09-05T05:21:12.211Z,1006.20
2018-09-05T05:22:12.165Z,1006.19
2018-09-05T05:23:12.113Z,1006.16
2018-09-05T05:24:12.064Z,1006.16
2018-09-05T05:25:12.037Z,1006.19
2018-09-05T05:26:11.970Z,1006.17
2018-09-05T05:27:11.923Z,1006.15
2018-09-05T05:28:11.878Z,1006.19
2018-09-05T05:29:11.829Z,1006.18
2018-09-05T05:30:11.804Z,1006.15
2018-09-05T05:31:11.736Z,1006.16
2018-09-05T05:32:11.687Z,1006.14
2018-09-05T05:33:11.639Z,1006.19
2018-09-05T05:34:11.586Z,1006.15
2018-09-05T05:35:11.570Z,1006.13
2018-09-05T05:36:11.497Z,1006.16
2018-09-05T05:37:11.448Z,1006.15
2018-09-05T05:38:11.405Z,1006.15
2018-09-05T05:39:11.353Z,1006.15
2018-09-05T05:40:11.347Z,1006.17
2018-09-05T05:41:11.256Z,1006.15
2018-09-05T05:42:11.211Z,1006.17
2018-09-05T05:43:11.161Z,1006.20
2018-09-05T05:44:11.114Z,1006.20
2018-09-05T05:45:11.088Z,1006.19
2018-09-05T05:46:11.018Z,1006.24
2018-09-05T05:47:10.972Z,1006.27
2018-09-05T05:48:10.927Z,1006.23
2018-09-05T05:49:10.874Z,1006.25
2018-09-05T05:50:10.873Z,1006.24
2018-09-05T05:51:10.781Z,1006.32
2018-09-05T05:52:10.736Z,1006.29
2018-09-05T05:53:10.682Z,1006.30
2018-09-05T05:54:10.639Z,1006.29
2018-09-05T05:55:10.616Z,1006.32
2018-09-05T05:56:10.569Z,1006.34
2018-09-05T05:57:10.496Z,1006.33
2018-09-05T05:58:10.452Z,1006.35
2018-09-05T05:59:10.406Z,1006.34
2018-09-05T06:00:10.352Z,1006.37
2018-09-05T06:01:10.407Z,1006.35
2018-09-05T06:02:10.259Z,1006.37
2018-09-05T06:03:10.213Z,1006.41
2018-09-05T06:04:10.162Z,1006.39
2018-09-05T06:05:10.116Z,1006.45
2018-09-05T06:06:10.189Z,1006.46
2018-09-05T06:07:10.018Z,1006.45
2018-09-05T06:08:09.974Z,1006.44
2018-09-05T06:09:09.925Z,1006.44
2018-09-05T06:10:09.878Z,1006.48
2018-09-05T06:11:09.861Z,1006.49
2018-09-05T06:12:09.800Z,1006.52
2018-09-05T06:13:09.737Z,1006.51
2018-09-05T06:14:09.696Z,1006.51
2018-09-05T06:15:09.648Z,1006.51
2018-09-05T06:16:09.622Z,1006.54
2018-09-05T06:17:09.548Z,1006.57
2018-09-05T06:18:09.509Z,1006.61
2018-09-05T06:19:09.451Z,1006.58
2018-09-05T06:20:09.404Z,1006.60
2018-09-05T06:21:09.457Z,1006.67
2018-09-05T06:22:09.308Z,1006.65
2018-09-05T06:23:09.265Z,1006.65
2018-09-05T06:24:09.233Z,1006.64
2018-09-05T06:25:09.167Z,1006.63
2018-09-05T06:26:09.163Z,1006.65
2018-09-05T06:27:09.077Z,1006.65
2018-09-05T06:28:09.031Z,1006.63
2018-09-05T06:29:08.980Z,1006.62
2018-09-05T06:30:08.937Z,1006.70
2018-09-05T06:31:09.025Z,1006.64
2018-09-05T06:32:08.853Z,1006.63
2018-09-05T06:33:08.794Z,1006.65
2018-09-05T06:34:08.753Z,1006.63
2018-09-05T06:35:08.704Z,1006.67
2018-09-05T06:36:08.679Z,1006.64
2018-09-05T06:37:08.613Z,1006.66
2018-09-05T06:38:08.567Z,1006.68
2018-09-05T06:39:08.583Z,1006.71
2018-09-05T06:40:08.489Z,1006.72
2018-09-05T06:41:08.455Z,1006.71
2018-09-05T06:42:08.379Z,1006.66
2018-09-05T06:43:08.329Z,1006.70
2018-09-05T06:44:08.295Z,1006.70
2018-09-05T06:45:08.336Z,1006.68
2018-09-05T06:46:08.221Z,1006.71
2018-09-05T06:47:08.144Z,1006.63
2018-09-05T06:48:08.099Z,1006.66
2018-09-05T06:49:08.065Z,1006.68
2018-09-05T06:50:08.025Z,1006.65
2018-09-05T06:51:08.001Z,1006.63
2018-09-05T06:52:07.936Z,1006.64
2018-09-05T06:53:07.873Z,1006.66
2018-09-05T06:54:07.835Z,1006.66
2018-09-05T06:55:07.782Z,1006.66
2018-09-05T06:56:07.761Z,1006.65
2018-09-05T06:57:07.686Z,1006.63
2018-09-05T06:58:07.693Z,1006.63
2018-09-05T06:59:07.621Z,1006.69
2018-09-05T07:00:07.556Z,1006.71
2018-09-05T07:01:07.509Z,1006.71
2018-09-05T07:02:07.488Z,1006.66
2018-09-05T07:03:07.414Z,1006.69
2018-09-05T07:04:07.375Z,1006.66
2018-09-05T07:05:07.326Z,1006.65
2018-09-05T07:06:07.281Z,1006.68
2018-09-05T07:07:07.370Z,1006.69
2018-09-05T07:08:07.195Z,1006.73
2018-09-05T07:09:07.146Z,1006.68
2018-09-05T07:10:07.160Z,1006.70
2018-09-05T07:11:07.055Z,1006.72
2018-09-05T07:12:07.031Z,1006.72
2018-09-05T07:13:06.963Z,1006.74
2018-09-05T07:14:06.965Z,1006.72
2018-09-05T07:15:06.875Z,1006.77
2018-09-05T07:16:06.834Z,1006.76
2018-09-05T07:17:06.809Z,1006.77
2018-09-05T07:18:06.737Z,1006.76
2018-09-05T07:19:06.692Z,1006.77
2018-09-05T07:20:06.651Z,1006.75
2018-09-05T07:21:06.607Z,1006.75
2018-09-05T07:22:06.600Z,1006.79
2018-09-05T07:23:06.516Z,1006.77
2018-09-05T07:24:06.478Z,1006.75
2018-09-05T07:25:06.576Z,1006.77
2018-09-05T07:26:06.384Z,1006.76
2018-09-05T07:27:06.364Z,1006.75
2018-09-05T07:28:06.304Z,1006.72
2018-09-05T07:29:06.253Z,1006.75
2018-09-05T07:30:06.202Z,1006.76
2018-09-05T07:31:06.157Z,1006.73
2018-09-05T07:32:06.135Z,1006.73
2018-09-05T07:33:06.071Z,1006.72
2018-09-05T07:34:06.025Z,1006.71
2018-09-05T07:35:05.979Z,1006.75
2018-09-05T07:36:05.933Z,1006.76
2018-09-05T07:37:05.912Z,1006.75
2018-09-05T07:38:05.844Z,1006.73
2018-09-05T07:39:05.797Z,1006.77
2018-09-05T07:40:05.752Z,1006.80
2018-09-05T07:41:05.708Z,1006.79
2018-09-05T07:42:05.689Z,1006.81
2018-09-05T07:43:05.622Z,1006.81
2018-09-05T07:44:05.576Z,1006.82
2018-09-05T07:45:05.529Z,1006.80
2018-09-05T07:46:05.486Z,1006.81
2018-09-05T07:47:05.463Z,1006.80
2018-09-05T07:48:05.395Z,1006.81
2018-09-05T07:49:05.355Z,1006.81
2018-09-05T07:50:05.309Z,1006.84
2018-09-05T07:51:05.310Z,1006.85
2018-09-05T07:52:05.281Z,1006.85
2018-09-05T07:53:05.176Z,1006.86
2018-09-05T07:54:05.127Z,1006.84
2018-09-05T07:55:05.101Z,1006.85
2018-09-05T07:56:05.043Z,1006.84
2018-09-05T07:57:05.020Z,1006.89
2018-09-05T07:58:04.950Z,1006.87
2018-09-05T07:59:04.906Z,1006.87
2018-09-05T08:00:04.861Z,1006.89
2018-09-05T08:01:04.817Z,1006.88
2018-09-05T08:02:04.794Z,1006.90
2018-09-05T08:03:04.844Z,1006.88
2018-09-05T08:04:04.682Z,1006.89
2018-09-05T08:05:04.634Z,1006.85
2018-09-05T08:06:04.596Z,1006.86
2018-09-05T08:07:04.575Z,1006.84
2018-09-05T08:08:04.508Z,1006.86
2018-09-05T08:09:04.457Z,1006.83
2018-09-05T08:10:04.415Z,1006.85
2018-09-05T08:11:04.370Z,1006.84
2018-09-05T08:12:04.351Z,1006.86
2018-09-05T08:13:04.280Z,1006.86
2018-09-05T08:14:04.234Z,1006.87
2018-09-05T08:15:04.194Z,1006.91
2018-09-05T08:16:04.145Z,1006.91
2018-09-05T08:17:04.138Z,1006.91
2018-09-05T08:18:04.108Z,1006.93
2018-09-05T08:19:04.016Z,1006.93
2018-09-05T08:20:03.969Z,1006.93
2018-09-05T08:21:03.921Z,1006.92
2018-09-05T08:22:03.880Z,1006.95
2018-09-05T08:23:03.864Z,1006.91
2018-09-05T08:24:03.840Z,1006.88
2018-09-05T08:25:03.743Z,1006.94
2018-09-05T08:26:03.706Z,1006.93
2018-09-05T08:27:03.657Z,1006.88
2018-09-05T08:28:03.632Z,1006.89
2018-09-05T08:29:03.575Z,1006.92
2018-09-05T08:30:03.587Z,1006.90
2018-09-05T08:31:03.483Z,1006.93
2018-09-05T08:32:03.433Z,1006.94
2018-09-05T08:33:03.410Z,1006.93
2018-09-05T08:34:03.347Z,1006.92
2018-09-05T08:35:03.426Z,1006.90
2018-09-05T08:36:03.687Z,1006.86
2018-09-05T08:37:03.371Z,1006.89
2018-09-05T08:38:03.286Z,1006.90
2018-09-05T08:39:03.239Z,1006.94
2018-09-05T08:40:03.081Z,1006.91
2018-09-05T08:41:03.085Z,1006.88
2018-09-05T08:42:03.096Z,1006.89
2018-09-05T08:43:02.967Z,1006.91
2018-09-05T08:44:02.967Z,1006.91
2018-09-05T08:45:03.001Z,1006.90
2018-09-05T08:46:03.019Z,1006.95
2018-09-05T08:47:02.855Z,1006.89
2018-09-05T08:48:02.800Z,1006.89
2018-09-05T08:49:02.678Z,1006.91
2018-09-05T08:50:02.642Z,1006.89
2018-09-05T08:51:02.591Z,1006.91
2018-09-05T08:52:02.566Z,1006.91
2018-09-05T08:53:02.522Z,1006.89
2018-09-05T08:54:02.454Z,1006.88
2018-09-05T08:55:02.429Z,1006.88
2018-09-05T08:56:02.366Z,1006.84
2018-09-05T08:57:02.326Z,1006.84
2018-09-05T08:58:02.297Z,1006.85
2018-09-05T08:59:02.242Z,1006.84
2018-09-05T09:00:02.189Z,1006.88
2018-09-05T09:01:02.147Z,1006.88
2018-09-05T09:02:02.099Z,1006.86
2018-09-05T09:03:02.147Z,1006.87
2018-09-05T09:04:02.010Z,1006.85
2018-09-05T09:05:02.039Z,1006.87
2018-09-05T09:06:01.928Z,1006.85
2018-09-05T09:07:01.881Z,1006.86
2018-09-05T09:08:01.865Z,1006.86
2018-09-05T09:09:01.788Z,1006.89
2018-09-05T09:10:01.750Z,1006.85
2018-09-05T09:11:01.710Z,1006.85
2018-09-05T09:12:01.676Z,1006.88
2018-09-05T09:13:01.641Z,1006.87
2018-09-05T09:14:01.580Z,1006.84
2018-09-05T09:15:01.527Z,1006.81
2018-09-05T09:16:01.478Z,1006.82
2018-09-05T09:17:01.452Z,1006.80
2018-09-05T09:18:01.416Z,1006.80
2018-09-05T09:19:01.349Z,1006.76
2018-09-05T09:20:01.306Z,1006.79
2018-09-05T09:21:01.262Z,1006.80
2018-09-05T09:22:01.219Z,1006.75
2018-09-05T09:23:01.219Z,1006.78
2018-09-05T09:24:01.132Z,1006.72
2018-09-05T09:25:01.096Z,1006.71
2018-09-05T09:26:01.058Z,1006.70
2018-09-05T09:27:00.999Z,1006.68
2018-09-05T09:28:00.964Z,1006.70
2018-09-05T09:29:00.935Z,1006.69
2018-09-05T09:30:00.868Z,1006.68
2018-09-05T09:31:00.826Z,1006.65
2018-09-05T09:32:00.785Z,1006.73
2018-09-05T09:33:00.743Z,1006.66
2018-09-05T09:34:00.717Z,1006.69
2018-09-05T09:35:00.653Z,1006.67
2018-09-05T09:36:00.601Z,1006.63
2018-09-05T09:37:00.561Z,1006.63
2018-09-05T09:38:00.515Z,1006.60
2018-09-05T09:39:00.500Z,1006.61
2018-09-05T09:40:00.441Z,1006.59
2018-09-05T09:41:00.386Z,1006.60
2018-09-05T09:42:00.347Z,1006.59
2018-09-05T09:43:00.298Z,1006.62
2018-09-05T09:44:00.279Z,1006.56
2018-09-05T09:45:00.215Z,1006.55
2018-09-05T09:46:00.170Z,1006.53
2018-09-05T09:47:00.133Z,1006.57
2018-09-05T09:48:00.081Z,1006.52
2018-09-05T09:49:00.072Z,1006.50
2018-09-05T09:50:00.011Z,1006.50
2018-09-05T09:51:00.105Z,1006.56
2018-09-05T09:51:59.909Z,1006.53
2018-09-05T09:52:59.863Z,1006.58
2018-09-05T09:53:59.842Z,1006.54
2018-09-05T09:54:59.776Z,1006.51
2018-09-05T09:55:59.737Z,1006.55
2018-09-05T09:56:59.688Z,1006.51
2018-09-05T09:57:59.659Z,1006.50
2018-09-05T09:58:59.627Z,1006.48
2018-09-05T09:59:59.563Z,1006.45
2018-09-05T10:00:59.517Z,1006.46
2018-09-05T10:01:59.477Z,1006.49
2018-09-05T10:02:59.437Z,1006.42
2018-09-05T10:03:59.437Z,1006.43
2018-09-05T10:04:59.367Z,1006.41
2018-09-05T10:05:59.301Z,1006.41
2018-09-05T10:06:59.276Z,1006.42
2018-09-05T10:07:59.214Z,1006.41
2018-09-05T10:08:59.205Z,1006.41
2018-09-05T10:09:59.307Z,1006.46
2018-09-05T10:10:59.083Z,1006.42
2018-09-05T10:11:59.043Z,1006.43
2018-09-05T10:12:58.996Z,1006.40
2018-09-05T10:13:58.979Z,1006.37
2018-09-05T10:14:58.947Z,1006.35
2018-09-05T10:15:58.871Z,1006.32
2018-09-05T10:16:58.886Z,1006.37
2018-09-05T10:17:58.784Z,1006.36
2018-09-05T10:18:58.762Z,1006.35
2018-09-05T10:19:58.694Z,1006.34
2018-09-05T10:20:58.669Z,1006.32
2018-09-05T10:21:58.615Z,1006.30
2018-09-05T10:22:58.570Z,1006.29
2018-09-05T10:23:58.548Z,1006.30
2018-09-05T10:24:58.480Z,1006.31
2018-09-05T10:25:58.440Z,1006.29
2018-09-05T10:26:58.393Z,1006.30
2018-09-05T10:27:58.348Z,1006.25
2018-09-05T10:28:58.331Z,1006.25
2018-09-05T10:29:58.262Z,1006.26
2018-09-05T10:30:58.218Z,1006.23
2018-09-05T10:31:58.185Z,1006.21
2018-09-05T10:32:58.130Z,1006.17
2018-09-05T10:33:58.137Z,1006.20
2018-09-05T10:34:58.056Z,1006.20
2018-09-05T10:35:58.006Z,1006.18
2018-09-05T10:36:57.959Z,1006.19
2018-09-05T10:37:57.921Z,1006.16
2018-09-05T10:38:57.873Z,1006.16
2018-09-05T10:39:57.860Z,1006.16
2018-09-05T10:40:57.792Z,1006.13
2018-09-05T10:41:57.748Z,1006.14
2018-09-05T10:42:57.706Z,1006.15
2018-09-05T10:43:57.656Z,1006.12
2018-09-05T10:44:57.637Z,1006.10
2018-09-05T10:45:57.572Z,1006.14
2018-09-05T10:46:57.527Z,1006.15
2018-09-05T10:47:57.485Z,1006.10
2018-09-05T10:48:57.441Z,1006.14
2018-09-05T10:49:57.433Z,1006.14
2018-09-05T10:50:57.361Z,1006.09
2018-09-05T10:51:57.315Z,1006.15
2018-09-05T10:52:57.275Z,1006.11
2018-09-05T10:53:57.227Z,1006.07
2018-09-05T10:54:57.205Z,1006.11
2018-09-05T10:55:57.143Z,1006.11
2018-09-05T10:56:57.101Z,1006.05
2018-09-05T10:57:57.058Z,1006.09
2018-09-05T10:58:57.026Z,1006.11
2018-09-05T10:59:56.993Z,1006.10
2018-09-05T11:00:56.924Z,1006.09
2018-09-05T11:01:56.881Z,1006.06
2018-09-05T11:02:56.840Z,1005.99
2018-09-05T11:03:56.797Z,1005.99
2018-09-05T11:04:56.779Z,1005.99
2018-09-05T11:05:56.716Z,1006.00
2018-09-05T11:06:56.670Z,1005.98
2018-09-05T11:07:56.630Z,1005.96
2018-09-05T11:08:56.584Z,1006.00
2018-09-05T11:09:56.593Z,1005.99
2018-09-05T11:10:56.541Z,1006.01
2018-09-05T11:11:56.455Z,1006.02
2018-09-05T11:12:56.413Z,1005.99
2018-09-05T11:13:56.373Z,1005.99
2018-09-05T11:14:56.353Z,1005.97
2018-09-05T11:15:56.286Z,1005.99
2018-09-05T11:16:56.241Z,1006.01
2018-09-05T11:17:56.199Z,1005.96
2018-09-05T11:18:56.154Z,1006.02
2018-09-05T11:19:56.197Z,1005.97
2018-09-05T11:20:56.069Z,1005.95
2018-09-05T11:21:56.025Z,1005.95
2018-09-05T11:22:55.981Z,1005.97
2018-09-05T11:23:55.944Z,1005.94
2018-09-05T11:24:55.895Z,1006.00
2018-09-05T11:25:55.879Z,1005.94
2018-09-05T11:26:55.812Z,1005.92
2018-09-05T11:27:55.767Z,1005.95
2018-09-05T11:28:55.752Z,1005.96
2018-09-05T11:29:55.679Z,1005.96
2018-09-05T11:30:55.662Z,1005.94
2018-09-05T11:31:55.593Z,1005.89
2018-09-05T11:32:55.550Z,1005.91
2018-09-05T11:33:55.505Z,1005.90
2018-09-05T11:34:55.461Z,1005.93
2018-09-05T11:35:55.448Z,1005.86
2018-09-05T11:36:55.420Z,1005.87
2018-09-05T11:37:55.332Z,1005.87
2018-09-05T11:38:55.294Z,1005.91
2018-09-05T11:39:55.253Z,1005.88
2018-09-05T11:40:55.226Z,1005.84
2018-09-05T11:41:55.165Z,1005.86
2018-09-05T11:42:55.120Z,1005.80
2018-09-05T11:43:55.079Z,1005.84
2018-09-05T11:44:55.040Z,1005.82
2018-09-05T11:45:55.030Z,1005.80
2018-09-05T11:46:54.948Z,1005.78
2018-09-05T11:47:54.905Z,1005.83
2018-09-05T11:48:54.861Z,1005.82
2018-09-05T11:49:54.819Z,1005.80
2018-09-05T11:50:54.832Z,1005.79
2018-09-05T11:51:54.731Z,1005.79
2018-09-05T11:52:54.689Z,1005.79
2018-09-05T11:53:54.646Z,1005.73
2018-09-05T11:54:54.643Z,1005.74
2018-09-05T11:55:54.604Z,1005.77
2018-09-05T11:56:54.515Z,1005.70
2018-09-05T11:57:54.471Z,1005.69
2018-09-05T11:58:54.430Z,1005.68
2018-09-05T11:59:54.383Z,1005.64
2018-09-05T12:00:54.341Z,1005.64
2018-09-05T12:02:15.336Z,1005.69
2018-09-05T12:02:54.258Z,1005.60
2018-09-05T12:03:54.220Z,1005.63
2018-09-05T12:04:54.221Z,1005.68